Time;durP1;ratioP1;P1;durP2;ratioP2;P2;SDS_P1;SDS_P2;PMS_P1;PMS_P2;Temp;Humidity;BMP_temperature;BMP_pressure;BME280_temperature;BME280_humidity;BME280_pressure;Samples;Min_cycle;Max_cycle;Signal;HPM_P1;HPM_P2
2022/12/27 00:02:20;;;;;;;0.30;0.30;;;7.40;99.90;;;;;;5074716;28;20171;-70
2022/12/27 00:04:45;;;;;;;0.30;0.30;;;7.40;99.90;;;;;;5073327;28;20299;-69
2022/12/27 00:07:11;;;;;;;0.30;0.30;;;7.20;99.90;;;;;;5074757;28;20233;-70
2022/12/27 00:09:37;;;;;;;0.30;0.30;;;7.10;99.90;;;;;;5074498;28;20203;-69
2022/12/27 00:12:03;;;;;;;0.50;0.50;;;7.10;99.90;;;;;;5074572;28;20183;-70
2022/12/27 00:14:28;;;;;;;0.50;0.50;;;7.10;99.90;;;;;;5074564;28;20592;-70
2022/12/27 00:16:54;;;;;;;0.30;0.30;;;7.00;99.90;;;;;;5074513;28;20462;-69
2022/12/27 00:19:20;;;;;;;0.40;0.40;;;7.00;99.90;;;;;;5074585;28;20174;-69
2022/12/27 00:21:45;;;;;;;0.87;0.87;;;6.90;99.90;;;;;;5074217;28;20186;-70
2022/12/27 00:24:11;;;;;;;0.40;0.40;;;6.90;99.90;;;;;;5074470;28;20530;-70
2022/12/27 00:26:38;;;;;;;0.40;0.40;;;6.80;99.90;;;;;;5074304;28;20339;-70
2022/12/27 00:29:04;;;;;;;0.32;0.32;;;6.90;99.90;;;;;;5074297;28;20193;-70
2022/12/27 00:31:31;;;;;;;0.30;0.30;;;6.80;99.90;;;;;;5072793;28;20671;-70
2022/12/27 00:33:58;;;;;;;0.30;0.30;;;6.90;99.90;;;;;;5073811;28;20170;-69
2022/12/27 00:36:26;;;;;;;0.30;0.30;;;6.80;99.90;;;;;;5073831;28;20211;-70
2022/12/27 00:38:53;;;;;;;0.75;0.75;;;6.80;99.90;;;;;;5074282;28;20167;-71
2022/12/27 00:41:19;;;;;;;0.30;0.30;;;6.80;99.90;;;;;;5073953;28;20188;-69
2022/12/27 00:43:45;;;;;;;0.30;0.30;;;6.70;99.90;;;;;;5074057;28;20535;-70
2022/12/27 00:46:12;;;;;;;0.40;0.40;;;6.50;99.90;;;;;;5073888;28;20249;-70
2022/12/27 00:48:38;;;;;;;0.40;0.40;;;6.40;99.90;;;;;;5073976;28;20185;-69
2022/12/27 00:51:13;;;;;;;0.50;0.50;;;6.30;99.90;;;;;;5073822;28;20207;-69
2022/12/27 00:53:39;;;;;;;0.30;0.30;;;6.40;99.90;;;;;;5074129;28;20560;-70
2022/12/27 00:56:16;;;;;;;0.30;0.30;;;6.40;99.90;;;;;;5073635;28;20192;-70
2022/12/27 00:58:42;;;;;;;0.40;0.40;;;6.50;99.90;;;;;;5073883;28;20223;-70
2022/12/27 01:01:14;;;;;;;0.40;0.40;;;6.50;99.90;;;;;;5073630;28;20680;-70
2022/12/27 01:03:40;;;;;;;0.30;0.30;;;6.50;99.90;;;;;;5073653;28;20261;-70
2022/12/27 01:06:15;;;;;;;0.30;0.30;;;6.60;99.90;;;;;;5073454;28;20206;-69
2022/12/27 01:08:40;;;;;;;0.40;0.40;;;6.50;99.90;;;;;;5073718;28;20534;-70
2022/12/27 01:11:07;;;;;;;0.30;0.30;;;6.40;99.90;;;;;;5073498;28;20194;-70
2022/12/27 01:13:33;;;;;;;0.30;0.30;;;6.40;99.90;;;;;;5073751;28;20408;-70
2022/12/27 01:15:59;;;;;;;0.40;0.40;;;6.40;99.90;;;;;;5073249;28;20244;-70
2022/12/27 01:18:25;;;;;;;0.30;0.30;;;6.50;99.90;;;;;;5073726;28;20175;-70
2022/12/27 01:20:51;;;;;;;0.40;0.40;;;6.50;99.90;;;;;;5073414;28;20412;-70
2022/12/27 01:23:16;;;;;;;0.30;0.30;;;6.50;99.90;;;;;;5073536;28;20605;-70
2022/12/27 01:25:42;;;;;;;0.40;0.40;;;6.50;99.90;;;;;;5073428;28;20166;-69
2022/12/27 01:28:08;;;;;;;0.40;0.40;;;6.50;99.90;;;;;;5073402;28;20404;-69
2022/12/27 01:30:33;;;;;;;0.30;0.30;;;6.40;99.90;;;;;;5073439;28;20189;-70
2022/12/27 01:32:59;;;;;;;1.73;0.60;;;6.40;99.90;;;;;;5073350;28;20222;-70
2022/12/27 01:35:25;;;;;;;0.30;0.30;;;6.50;99.90;;;;;;5073345;28;20664;-69
2022/12/27 01:37:51;;;;;;;0.40;0.40;;;6.60;99.90;;;;;;5073296;28;20188;-70
2022/12/27 01:40:17;;;;;;;0.30;0.30;;;6.70;99.90;;;;;;5073482;28;20533;-69
2022/12/27 01:42:51;;;;;;;0.40;0.40;;;6.60;99.90;;;;;;5073283;28;20234;-70
2022/12/27 01:45:24;;;;;;;0.30;0.30;;;6.60;99.90;;;;;;5073531;28;20214;-69
2022/12/27 01:48:10;;;;;;;0.30;0.30;;;6.60;99.90;;;;;;5077098;28;20175;-70
2022/12/27 01:50:45;;;;;;;0.40;0.40;;;6.50;99.90;;;;;;5077227;28;20187;-70
2022/12/27 01:53:20;;;;;;;0.45;0.45;;;6.50;99.90;;;;;;5077314;28;20161;-70
2022/12/27 01:55:54;;;;;;;3.33;1.95;;;6.40;99.90;;;;;;5076936;28;20198;-70
2022/12/27 01:58:27;;;;;;;0.30;0.30;;;6.30;99.90;;;;;;5077163;28;20178;-70
2022/12/27 02:00:53;;;;;;;0.40;0.40;;;6.30;99.90;;;;;;5075805;28;20675;-69
2022/12/27 02:03:33;;;;;;;0.40;0.40;;;6.30;99.90;;;;;;5077192;28;20234;-70
2022/12/27 02:06:01;;;;;;;0.32;0.32;;;6.30;99.90;;;;;;5076829;28;20574;-70
2022/12/27 02:08:51;;;;;;;0.40;0.40;;;6.30;99.90;;;;;;5077141;28;20188;-70
2022/12/27 02:11:49;;;;;;;0.50;0.50;;;6.30;99.90;;;;;;5076843;28;20237;-70
2022/12/27 02:14:07;;;;;;;0.30;0.30;;;6.30;99.90;;;;;;5076735;28;20192;-69
2022/12/27 02:16:33;;;;;;;0.38;0.38;;;6.20;99.90;;;;;;5076642;28;20197;-69
2022/12/27 02:18:58;;;;;;;0.30;0.30;;;6.00;99.90;;;;;;5075465;28;20544;-70
2022/12/27 02:21:56;;;;;;;0.33;0.33;;;6.20;99.90;;;;;;5075351;28;20185;-69
2022/12/27 02:24:40;;;;;;;1.40;1.30;;;6.20;99.90;;;;;;5075244;28;20206;-70
2022/12/27 02:27:23;;;;;;;0.30;0.30;;;6.30;99.90;;;;;;5076581;28;20523;-70
2022/12/27 02:30:00;;;;;;;0.30;0.30;;;6.30;99.90;;;;;;5076665;28;20197;-70
2022/12/27 02:32:54;;;;;;;0.30;0.30;;;6.30;99.90;;;;;;5076548;28;20180;-70
2022/12/27 02:35:27;;;;;;;0.40;0.40;;;6.20;99.90;;;;;;5076372;28;20175;-70
2022/12/27 02:38:00;;;;;;;0.93;0.50;;;6.20;99.90;;;;;;5076292;28;20273;-68
2022/12/27 02:55:10;;;;;;;0.32;0.32;;;6.10;99.90;;;;;;5075998;28;20183;-70
2022/12/27 02:57:47;;;;;;;0.32;0.32;;;6.20;99.90;;;;;;5075546;28;20559;-70
2022/12/27 03:03:38;;;;;;;0.30;0.30;;;6.20;99.90;;;;;;5076092;28;20596;-70
2022/12/27 03:06:40;;;;;;;0.40;0.40;;;6.20;99.90;;;;;;5075925;28;20251;-70
2022/12/27 03:15:53;;;;;;;0.40;0.40;;;6.20;99.90;;;;;;5076024;28;20207;-70
2022/12/27 03:18:39;;;;;;;0.50;0.50;;;6.30;99.90;;;;;;5075745;28;20188;-70
2022/12/27 03:26:42;;;;;;;1.95;1.30;;;6.10;99.90;;;;;;5075997;28;20216;-70
2022/12/27 03:34:49;;;;;;;0.30;0.30;;;6.00;99.90;;;;;;5075460;28;20548;-69
2022/12/27 03:40:09;;;;;;;0.40;0.40;;;5.90;99.90;;;;;;5075417;28;20196;-70
2022/12/27 03:46:32;;;;;;;0.30;0.30;;;5.80;99.90;;;;;;5074940;28;20181;-70
2022/12/27 03:48:22;;;;;;;0.40;0.40;;;5.80;99.90;;;;;;5074968;28;20246;-70
2022/12/27 03:50:55;;;;;;;0.40;0.40;;;5.70;99.90;;;;;;5075177;28;20199;-69
2022/12/27 03:53:38;;;;;;;0.50;0.50;;;5.70;99.90;;;;;;5075531;28;20174;-70
2022/12/27 03:56:05;;;;;;;0.30;0.30;;;5.80;99.90;;;;;;5074936;28;20339;-70
2022/12/27 03:58:31;;;;;;;0.60;0.60;;;5.80;99.90;;;;;;5074763;28;20231;-70
2022/12/27 04:00:58;;;;;;;0.70;0.70;;;5.90;99.90;;;;;;5074725;28;20193;-70
2022/12/27 04:03:23;;;;;;;0.60;0.60;;;5.90;99.90;;;;;;5074974;28;20638;-70
2022/12/27 04:05:49;;;;;;;0.40;0.40;;;5.90;99.90;;;;;;5074687;28;20179;-70
2022/12/27 04:35:35;;;;;;;0.50;0.50;;;5.90;99.90;;;;;;5073980;28;20271;-69
2022/12/27 04:38:01;;;;;;;0.60;0.60;;;5.90;99.90;;;;;;5074092;28;20192;-70
2022/12/27 04:57:02;;;;;;;0.40;0.40;;;6.20;99.90;;;;;;5074023;28;20239;-70
2022/12/27 05:02:12;;;;;;;0.40;0.40;;;6.10;99.90;;;;;;5073876;28;20165;-69
2022/12/27 05:04:38;;;;;;;0.30;0.30;;;6.00;99.90;;;;;;5073685;28;20627;-70
2022/12/27 05:15:20;;;;;;;0.98;0.98;;;6.00;99.90;;;;;;5073443;28;20554;-70
2022/12/27 05:17:46;;;;;;;0.40;0.40;;;6.10;99.90;;;;;;5073923;28;20197;-68
2022/12/27 05:20:11;;;;;;;0.70;0.63;;;6.10;99.90;;;;;;5073324;28;20197;-69
2022/12/27 05:25:37;;;;;;;0.35;0.35;;;6.20;99.90;;;;;;5073362;28;20552;-70
2022/12/27 05:28:07;;;;;;;0.40;0.40;;;6.20;99.90;;;;;;5073624;28;20165;-69
2022/12/27 05:30:34;;;;;;;0.73;0.73;;;6.00;99.90;;;;;;5073560;28;20235;-69
2022/12/27 05:33:00;;;;;;;0.40;0.40;;;6.00;99.90;;;;;;5073434;28;20184;-70
2022/12/27 05:35:26;;;;;;;0.50;0.50;;;6.00;99.90;;;;;;5072053;28;20170;-69
2022/12/27 05:37:55;;;;;;;0.30;0.30;;;6.00;99.90;;;;;;5073435;28;20640;-70
2022/12/27 05:40:22;;;;;;;0.60;0.60;;;5.90;99.90;;;;;;5073307;28;20428;-70
2022/12/27 05:42:47;;;;;;;0.30;0.30;;;5.90;99.90;;;;;;5073275;28;20251;-70
2022/12/27 05:45:13;;;;;;;1.53;1.50;;;6.00;99.90;;;;;;5071930;28;20272;-69
2022/12/27 05:47:39;;;;;;;0.30;0.30;;;6.00;99.90;;;;;;5073233;28;20220;-70
2022/12/27 05:50:06;;;;;;;0.75;0.75;;;6.10;99.90;;;;;;5073141;28;20280;-70
2022/12/27 05:52:31;;;;;;;0.45;0.45;;;6.10;99.90;;;;;;5073108;28;20208;-70
2022/12/27 05:54:57;;;;;;;0.40;0.40;;;6.00;99.90;;;;;;5073036;28;20189;-70
2022/12/27 05:57:23;;;;;;;0.50;0.50;;;6.00;99.90;;;;;;5073011;28;20447;-70
2022/12/27 05:59:49;;;;;;;0.30;0.30;;;6.00;99.90;;;;;;5073641;28;20654;-70
2022/12/27 06:02:14;;;;;;;0.80;0.80;;;6.00;99.90;;;;;;5073124;28;20169;-70
2022/12/27 06:04:40;;;;;;;1.47;1.10;;;5.90;99.90;;;;;;5072984;28;20219;-70
2022/12/27 06:07:05;;;;;;;0.57;0.57;;;5.90;99.90;;;;;;5073188;28;20182;-70
2022/12/27 06:09:31;;;;;;;0.30;0.30;;;6.10;99.90;;;;;;5072968;28;20167;-69
2022/12/27 06:11:57;;;;;;;0.30;0.30;;;6.00;99.90;;;;;;5071725;28;20188;-69
2022/12/27 06:14:22;;;;;;;0.40;0.40;;;6.00;99.90;;;;;;5071609;28;20272;-70
2022/12/27 06:16:48;;;;;;;0.43;0.43;;;6.00;99.90;;;;;;5073094;28;20237;-69
2022/12/27 06:19:14;;;;;;;0.50;0.50;;;5.90;99.90;;;;;;5073058;28;20260;-70
2022/12/27 06:21:39;;;;;;;0.40;0.40;;;5.80;99.90;;;;;;5072908;28;20283;-69
2022/12/27 06:24:05;;;;;;;0.30;0.30;;;5.70;99.90;;;;;;5073296;28;20175;-70
2022/12/27 06:26:31;;;;;;;0.30;0.30;;;5.90;99.90;;;;;;5072805;28;20626;-70
2022/12/27 06:28:57;;;;;;;5.87;1.70;;;5.80;99.90;;;;;;5072856;28;20178;-70
2022/12/27 06:31:24;;;;;;;0.30;0.30;;;5.80;99.90;;;;;;5072721;28;20205;-69
2022/12/27 06:33:51;;;;;;;0.50;0.50;;;5.70;99.90;;;;;;5075986;28;20544;-70
2022/12/27 06:36:19;;;;;;;0.30;0.30;;;5.80;99.90;;;;;;5076186;28;20692;-70
2022/12/27 06:38:45;;;;;;;0.47;0.47;;;5.90;99.90;;;;;;5076436;28;20173;-70
2022/12/27 06:41:13;;;;;;;0.50;0.50;;;5.80;99.90;;;;;;5076513;28;20570;-69
2022/12/27 06:43:39;;;;;;;0.43;0.43;;;5.80;99.90;;;;;;5076293;28;20405;-70
2022/12/27 06:46:14;;;;;;;0.52;0.52;;;5.80;99.90;;;;;;5074802;28;20181;-69
2022/12/27 06:48:40;;;;;;;0.30;0.30;;;5.80;99.90;;;;;;5076350;28;20257;-69
2022/12/27 06:51:08;;;;;;;0.30;0.30;;;5.80;99.90;;;;;;5076075;28;20276;-70
2022/12/27 06:53:38;;;;;;;0.30;0.30;;;5.90;99.90;;;;;;5076043;28;20544;-70
2022/12/27 06:56:11;;;;;;;0.93;0.60;;;5.90;99.90;;;;;;5075926;28;20280;-70
2022/12/27 06:58:36;;;;;;;0.30;0.30;;;5.80;99.90;;;;;;5076119;28;20189;-70
2022/12/27 07:01:16;;;;;;;1.80;1.67;;;5.80;99.90;;;;;;5076008;28;20198;-70
2022/12/27 07:03:46;;;;;;;0.30;0.30;;;5.70;99.90;;;;;;5075753;28;20582;-70
2022/12/27 07:06:12;;;;;;;0.60;0.60;;;5.70;99.90;;;;;;5075752;28;20178;-70
2022/12/27 07:08:38;;;;;;;0.70;0.70;;;5.60;99.90;;;;;;5075904;28;20219;-70
2022/12/27 07:11:07;;;;;;;0.40;0.40;;;5.70;99.90;;;;;;5075937;28;20190;-70
2022/12/27 07:13:35;;;;;;;0.40;0.40;;;5.70;99.90;;;;;;5075774;28;20176;-70
2022/12/27 07:16:04;;;;;;;0.60;0.60;;;5.70;99.90;;;;;;5075682;28;20205;-70
2022/12/27 07:18:30;;;;;;;4.32;0.70;;;5.70;99.90;;;;;;5074587;28;20174;-70
2022/12/27 07:20:56;;;;;;;0.40;0.40;;;5.70;99.90;;;;;;5075592;28;20190;-70
2022/12/27 07:23:21;;;;;;;0.60;0.60;;;5.60;99.90;;;;;;5075846;28;20458;-70
2022/12/27 07:25:47;;;;;;;0.40;0.40;;;5.60;99.90;;;;;;5075512;28;20173;-70
2022/12/27 07:28:12;;;;;;;0.33;0.33;;;5.60;99.90;;;;;;5075428;28;20580;-70
2022/12/27 07:30:40;;;;;;;0.30;0.30;;;5.60;99.90;;;;;;5075603;28;20194;-69
2022/12/27 07:33:06;;;;;;;0.30;0.30;;;5.80;99.90;;;;;;5075363;28;20630;-70
2022/12/27 07:35:32;;;;;;;0.40;0.40;;;5.90;99.90;;;;;;5075158;28;20174;-70
2022/12/27 07:37:57;;;;;;;0.50;0.50;;;5.80;99.90;;;;;;5075227;28;20418;-70
2022/12/27 07:40:23;;;;;;;0.30;0.30;;;5.90;99.90;;;;;;5075168;28;20673;-69
2022/12/27 07:42:49;;;;;;;0.37;0.37;;;6.00;99.90;;;;;;5075098;28;20193;-70
2022/12/27 07:45:14;;;;;;;0.83;0.50;;;6.00;99.90;;;;;;5073917;28;20181;-70
2022/12/27 07:47:40;;;;;;;0.30;0.30;;;5.90;99.90;;;;;;5075206;28;20178;-69
2022/12/27 07:50:06;;;;;;;0.30;0.30;;;6.00;99.90;;;;;;5075175;28;20205;-70
2022/12/27 07:52:32;;;;;;;0.40;0.40;;;6.00;99.90;;;;;;5075268;28;20263;-70
2022/12/27 07:54:57;;;;;;;0.50;0.50;;;6.10;99.90;;;;;;5074919;28;20220;-70
2022/12/27 07:57:23;;;;;;;0.40;0.40;;;6.00;99.90;;;;;;5074842;28;20336;-69
2022/12/27 07:59:48;;;;;;;0.30;0.30;;;6.10;99.90;;;;;;5074914;28;20182;-70
2022/12/27 08:02:15;;;;;;;1.07;1.07;;;6.10;99.90;;;;;;5074748;28;20162;-70
2022/12/27 08:04:41;;;;;;;0.30;0.30;;;6.00;99.90;;;;;;5074826;28;20167;-69
2022/12/27 08:07:15;;;;;;;0.30;0.30;;;6.10;99.90;;;;;;5073498;28;20237;-69
2022/12/27 08:09:43;;;;;;;0.85;0.85;;;6.00;99.90;;;;;;5074870;28;20179;-70
2022/12/27 08:12:09;;;;;;;0.40;0.40;;;5.90;99.90;;;;;;5074546;28;20177;-70
2022/12/27 08:14:35;;;;;;;0.32;0.32;;;6.00;99.90;;;;;;5074368;28;20250;-70
2022/12/27 08:17:16;;;;;;;0.40;0.40;;;6.10;99.90;;;;;;5074375;28;20296;-70
2022/12/27 08:19:42;;;;;;;0.82;0.82;;;6.10;99.90;;;;;;5074538;28;20254;-70
2022/12/27 08:22:09;;;;;;;0.30;0.30;;;6.00;99.90;;;;;;5074520;28;20257;-70
2022/12/27 08:24:35;;;;;;;0.57;0.57;;;5.90;99.90;;;;;;5074412;28;20245;-70
2022/12/27 08:27:01;;;;;;;2.10;0.50;;;6.00;99.90;;;;;;5074417;28;20263;-69
2022/12/27 08:29:27;;;;;;;1.40;1.40;;;6.00;99.90;;;;;;5074525;28;20183;-69
2022/12/27 08:31:52;;;;;;;0.60;0.60;;;6.10;99.90;;;;;;5074400;28;20231;-70
2022/12/27 08:34:18;;;;;;;0.40;0.40;;;6.10;99.90;;;;;;5074058;28;20251;-69
2022/12/27 08:36:43;;;;;;;0.30;0.30;;;6.10;99.90;;;;;;5073964;28;20667;-70
2022/12/27 08:39:10;;;;;;;0.30;0.30;;;6.00;99.90;;;;;;5074229;28;20166;-70
2022/12/27 08:41:37;;;;;;;0.50;0.50;;;6.10;99.90;;;;;;5073931;28;20191;-70
2022/12/27 08:44:03;;;;;;;0.93;0.93;;;6.00;99.90;;;;;;5074060;28;20169;-69
2022/12/27 08:46:28;;;;;;;0.43;0.43;;;6.10;99.90;;;;;;5073956;28;20524;-70
2022/12/27 08:48:54;;;;;;;0.70;0.70;;;6.20;99.90;;;;;;5073994;28;20174;-69
2022/12/27 08:51:19;;;;;;;0.40;0.40;;;6.10;99.90;;;;;;5073840;28;20768;-70
2022/12/27 08:53:48;;;;;;;0.40;0.40;;;6.10;99.90;;;;;;5073879;28;20256;-70
2022/12/27 08:56:13;;;;;;;1.02;0.85;;;6.20;99.90;;;;;;5073388;28;20601;-70
2022/12/27 08:58:39;;;;;;;0.80;0.50;;;6.10;99.90;;;;;;5073978;28;20202;-70
2022/12/27 09:01:06;;;;;;;0.60;0.60;;;6.30;99.90;;;;;;5073687;28;20280;-70
2022/12/27 09:03:32;;;;;;;0.40;0.40;;;6.40;99.90;;;;;;5072560;28;20176;-69
2022/12/27 09:06:15;;;;;;;0.30;0.30;;;6.40;99.90;;;;;;5073580;28;20592;-69
2022/12/27 09:08:43;;;;;;;0.40;0.40;;;6.40;99.90;;;;;;5073770;28;20410;-70
2022/12/27 09:11:14;;;;;;;0.30;0.30;;;6.50;99.90;;;;;;5074090;28;20556;-70
2022/12/27 09:13:41;;;;;;;1.13;0.73;;;6.50;99.90;;;;;;5073676;28;20525;-70
2022/12/27 09:16:12;;;;;;;0.30;0.30;;;6.50;99.90;;;;;;5073415;28;20289;-70
2022/12/27 09:18:38;;;;;;;0.30;0.30;;;6.60;99.90;;;;;;5073747;28;20169;-69
2022/12/27 09:21:11;;;;;;;0.60;0.60;;;6.60;99.90;;;;;;5073559;28;20647;-70
2022/12/27 09:23:37;;;;;;;0.68;0.68;;;6.70;99.90;;;;;;5073945;28;20216;-70
2022/12/27 09:26:07;;;;;;;0.30;0.30;;;7.00;99.90;;;;;;5073338;28;20175;-70
2022/12/27 09:28:33;;;;;;;0.68;0.68;;;7.30;99.90;;;;;;5073522;28;20169;-70
2022/12/27 09:30:59;;;;;;;0.40;0.40;;;7.50;99.90;;;;;;5073349;28;20196;-70
2022/12/27 09:33:26;;;;;;;0.60;0.52;;;7.80;99.50;;;;;;5073532;28;20403;-70
2022/12/27 09:35:52;;;;;;;1.63;1.52;;;7.80;98.90;;;;;;5072981;28;20227;-71
2022/12/27 09:38:17;;;;;;;0.57;0.57;;;7.70;98.40;;;;;;5073314;28;20252;-70
2022/12/27 09:40:58;;;;;;;0.67;0.60;;;7.60;98.40;;;;;;5073290;28;20530;-70
2022/12/27 09:43:47;;;;;;;0.30;0.30;;;7.60;98.40;;;;;;5073427;28;20528;-70
2022/12/27 09:46:19;;;;;;;0.68;0.68;;;7.60;98.50;;;;;;5073375;28;20201;-70
2022/12/27 09:48:48;;;;;;;0.80;0.57;;;7.60;98.50;;;;;;5073590;28;20154;-70
2022/12/27 09:51:22;;;;;;;1.55;1.50;;;7.70;98.70;;;;;;5073131;28;20192;-70
2022/12/27 09:53:52;;;;;;;0.40;0.40;;;8.00;98.50;;;;;;5073395;28;20214;-70
2022/12/27 09:56:27;;;;;;;0.75;0.75;;;8.30;97.90;;;;;;5071795;28;20208;-70
2022/12/27 09:59:26;;;;;;;0.30;0.30;;;8.80;96.90;;;;;;5073317;28;20176;-69
2022/12/27 10:01:52;;;;;;;0.90;0.90;;;9.30;96.90;;;;;;5073084;28;20681;-70
2022/12/27 10:04:18;;;;;;;0.40;0.40;;;10.10;94.80;;;;;;5073095;28;20395;-70
2022/12/27 10:06:52;;;;;;;0.60;0.60;;;10.70;93.50;;;;;;5073323;28;20249;-71
2022/12/27 10:09:42;;;;;;;0.40;0.40;;;11.30;91.80;;;;;;5077146;28;20770;-70
2022/12/27 10:12:14;;;;;;;1.17;0.93;;;12.10;90.60;;;;;;5077134;28;20396;-71
2022/12/27 10:15:16;;;;;;;0.73;0.67;;;13.20;87.20;;;;;;5076722;28;20408;-71
2022/12/27 10:17:49;;;;;;;3.80;0.70;;;13.80;83.80;;;;;;5076839;28;20443;-70
2022/12/27 10:20:24;;;;;;;3.20;1.13;;;13.70;83.70;;;;;;5075277;28;20435;-70
2022/12/27 10:22:55;;;;;;;0.57;0.57;;;13.40;82.50;;;;;;5076585;28;20392;-71
2022/12/27 10:25:24;;;;;;;0.50;0.50;;;12.90;83.30;;;;;;5076347;28;20412;-71
2022/12/27 10:28:08;;;;;;;0.40;0.40;;;12.40;82.40;;;;;;5076484;28;20407;-71
2022/12/27 10:30:34;;;;;;;0.40;0.40;;;12.00;82.30;;;;;;5076662;28;20431;-70
2022/12/27 10:33:00;;;;;;;0.40;0.40;;;11.80;83.40;;;;;;5076781;28;20407;-70
2022/12/27 10:35:27;;;;;;;0.30;0.30;;;12.00;83.90;;;;;;5076354;28;20172;-70
2022/12/27 10:37:53;;;;;;;0.40;0.40;;;11.90;84.40;;;;;;5076277;28;20300;-71
2022/12/27 10:40:21;;;;;;;0.37;0.37;;;12.20;84.80;;;;;;5076342;28;20426;-70
2022/12/27 10:43:25;;;;;;;0.40;0.40;;;12.30;83.80;;;;;;5076177;28;20391;-70
2022/12/27 10:45:51;;;;;;;0.40;0.40;;;12.10;84.30;;;;;;5074944;28;20417;-70
2022/12/27 10:48:23;;;;;;;0.30;0.30;;;11.80;82.10;;;;;;5076274;28;20491;-70
2022/12/27 10:51:00;;;;;;;2.40;0.90;;;11.20;82.00;;;;;;5076139;28;20427;-70
2022/12/27 10:53:39;;;;;;;0.40;0.40;;;10.70;82.50;;;;;;5076112;28;20491;-69
2022/12/27 10:56:16;;;;;;;0.40;0.40;;;10.50;86.90;;;;;;5075952;28;20439;-70
2022/12/27 10:58:49;;;;;;;0.40;0.40;;;10.40;87.10;;;;;;5076096;28;20435;-70
2022/12/27 11:01:24;;;;;;;0.30;0.30;;;10.20;86.80;;;;;;5076143;28;20419;-70
2022/12/27 11:04:08;;;;;;;0.60;0.60;;;10.20;87.20;;;;;;5075974;28;20200;-70
2022/12/27 11:06:34;;;;;;;0.30;0.30;;;10.40;87.20;;;;;;5076109;28;20592;-70
2022/12/27 11:09:35;;;;;;;0.40;0.40;;;10.40;86.10;;;;;;5075936;28;20180;-71
2022/12/27 11:12:13;;;;;;;2.53;0.50;;;10.50;86.80;;;;;;5076242;28;20892;-71
2022/12/27 11:14:49;;;;;;;0.40;0.40;;;10.70;88.10;;;;;;5075471;28;20181;-70
2022/12/27 11:17:16;;;;;;;0.40;0.40;;;10.90;89.30;;;;;;5075873;28;20204;-70
2022/12/27 11:19:46;;;;;;;3.15;1.52;;;11.10;88.00;;;;;;5075451;28;20505;-70
2022/12/27 11:22:12;;;;;;;3.55;1.35;;;11.20;87.50;;;;;;5075791;28;20162;-71
2022/12/27 11:24:45;;;;;;;0.40;0.40;;;11.20;87.60;;;;;;5075363;28;20227;-70
2022/12/27 11:27:26;;;;;;;0.30;0.30;;;11.20;87.10;;;;;;5075665;28;20177;-71
2022/12/27 11:29:55;;;;;;;4.63;0.77;;;11.10;87.10;;;;;;5075531;28;20639;-71
2022/12/27 11:32:22;;;;;;;0.40;0.40;;;10.90;86.20;;;;;;5075469;28;20177;-71
2022/12/27 11:34:50;;;;;;;0.43;0.43;;;10.70;87.00;;;;;;5075264;28;20170;-69
2022/12/27 11:37:20;;;;;;;0.85;0.85;;;10.60;87.10;;;;;;5075135;28;20266;-69
2022/12/27 11:39:53;;;;;;;0.40;0.40;;;10.10;87.40;;;;;;5075605;28;20170;-70
2022/12/27 11:42:37;;;;;;;11.88;0.73;;;9.90;90.10;;;;;;5075319;28;20185;-69
2022/12/27 11:45:22;;;;;;;0.40;0.40;;;9.60;90.20;;;;;;5075102;28;20169;-71
2022/12/27 11:47:53;;;;;;;0.70;0.70;;;9.30;90.80;;;;;;5075170;28;20720;-71
2022/12/27 11:50:37;;;;;;;0.30;0.30;;;9.00;91.20;;;;;;5075286;28;20215;-70
2022/12/27 11:53:31;;;;;;;0.82;0.50;;;8.90;91.50;;;;;;5075099;28;20164;-69
2022/12/27 11:56:15;;;;;;;0.30;0.30;;;8.60;91.90;;;;;;5074774;28;20197;-70
2022/12/27 11:59:13;;;;;;;0.30;0.30;;;8.70;92.60;;;;;;5075147;28;20215;-71
2022/12/27 12:02:14;;;;;;;0.40;0.40;;;8.60;91.80;;;;;;5073941;28;20231;-70
2022/12/27 12:05:06;;;;;;;1.20;1.20;;;8.60;92.20;;;;;;5074791;28;20165;-70
2022/12/27 12:08:03;;;;;;;0.30;0.30;;;8.50;92.30;;;;;;5074900;28;20172;-69
2022/12/27 12:10:42;;;;;;;0.40;0.40;;;8.50;92.40;;;;;;5074891;28;20207;-70
2022/12/27 12:13:27;;;;;;;0.30;0.30;;;8.50;92.10;;;;;;5074856;28;20634;-71
2022/12/27 12:16:05;;;;;;;0.30;0.30;;;8.60;92.20;;;;;;5074598;28;20169;-70
2022/12/27 12:18:30;;;;;;;0.30;0.30;;;8.60;92.00;;;;;;5074715;28;20169;-70
2022/12/27 12:20:58;;;;;;;0.30;0.30;;;8.70;91.90;;;;;;5073111;28;20189;-70
2022/12/27 12:23:48;;;;;;;0.40;0.40;;;8.80;91.90;;;;;;5074481;28;20176;-69
2022/12/27 12:26:24;;;;;;;34.03;1.00;;;9.00;92.10;;;;;;5074409;28;20174;-70
2022/12/27 12:29:26;;;;;;;0.30;0.30;;;9.20;91.50;;;;;;5074522;28;20164;-70
2022/12/27 12:32:02;;;;;;;0.30;0.30;;;9.30;90.70;;;;;;5073804;28;20193;-71
2022/12/27 12:34:36;;;;;;;0.55;0.55;;;9.40;90.60;;;;;;5074152;28;20284;-70
2022/12/27 12:37:16;;;;;;;0.85;0.50;;;9.30;90.30;;;;;;5073945;28;20204;-71
2022/12/27 12:39:59;;;;;;;0.40;0.40;;;9.40;90.00;;;;;;5074084;28;20181;-70
2022/12/27 12:42:43;;;;;;;0.40;0.40;;;9.20;90.00;;;;;;5074184;28;20622;-71
2022/12/27 12:45:42;;;;;;;0.30;0.30;;;9.20;90.00;;;;;;5073840;28;20256;-70
2022/12/27 12:48:37;;;;;;;0.80;0.80;;;9.40;89.90;;;;;;5074491;28;20154;-70
2022/12/27 12:51:29;;;;;;;0.50;0.50;;;9.40;89.40;;;;;;5073674;28;20641;-70
2022/12/27 12:54:03;;;;;;;0.30;0.30;;;9.40;88.40;;;;;;5073888;28;20637;-70
2022/12/27 12:56:32;;;;;;;0.60;0.60;;;9.50;88.80;;;;;;5073812;28;20200;-71
2022/12/27 12:59:16;;;;;;;0.95;0.60;;;9.60;89.50;;;;;;5073839;28;20165;-70
2022/12/27 13:02:08;;;;;;;0.38;0.38;;;9.60;89.60;;;;;;5073663;28;20612;-70
2022/12/27 13:05:00;;;;;;;0.50;0.50;;;9.50;89.70;;;;;;5073574;28;20173;-70
2022/12/27 13:07:54;;;;;;;0.30;0.30;;;9.40;89.50;;;;;;5073978;28;20178;-70
2022/12/27 13:10:37;;;;;;;0.30;0.30;;;9.20;88.60;;;;;;5073841;28;20195;-70
2022/12/27 13:13:29;;;;;;;0.30;0.30;;;9.10;89.80;;;;;;5074058;28;20165;-70
2022/12/27 13:16:35;;;;;;;0.50;0.50;;;9.00;89.50;;;;;;5073616;28;20182;-70
2022/12/27 13:19:22;;;;;;;0.30;0.30;;;9.00;90.00;;;;;;5073118;28;20189;-69
2022/12/27 13:22:15;;;;;;;0.40;0.40;;;8.90;91.60;;;;;;5073460;28;20565;-70
2022/12/27 13:24:56;;;;;;;0.30;0.30;;;8.60;91.70;;;;;;5073388;28;20165;-71
2022/12/27 13:27:38;;;;;;;0.75;0.50;;;8.40;91.20;;;;;;5073879;28;20184;-70
2022/12/27 13:30:22;;;;;;;0.38;0.38;;;8.30;91.90;;;;;;5073562;28;20276;-69
2022/12/27 13:33:00;;;;;;;0.30;0.30;;;8.30;92.40;;;;;;5073316;28;20648;-70
2022/12/27 13:35:40;;;;;;;0.30;0.30;;;8.30;92.80;;;;;;5073222;28;20174;-70
2022/12/27 13:38:29;;;;;;;0.40;0.40;;;8.30;94.10;;;;;;5073208;28;20276;-69
2022/12/27 13:41:10;;;;;;;0.30;0.30;;;8.30;94.10;;;;;;5073025;28;20609;-71
2022/12/27 13:44:05;;;;;;;0.35;0.35;;;8.30;93.70;;;;;;5077533;28;20164;-70
2022/12/27 13:46:52;;;;;;;0.50;0.50;;;8.40;92.40;;;;;;5077345;28;20181;-71
2022/12/27 13:49:43;;;;;;;0.82;0.82;;;8.60;91.10;;;;;;5077652;28;20686;-71
2022/12/27 13:52:45;;;;;;;1.02;0.80;;;8.70;91.20;;;;;;5077226;28;20198;-69
2022/12/27 13:55:33;;;;;;;0.30;0.30;;;8.70;91.70;;;;;;5077238;28;20199;-70
2022/12/27 13:58:35;;;;;;;0.30;0.30;;;8.70;91.20;;;;;;5077238;28;20229;-70
2022/12/27 14:01:12;;;;;;;0.50;0.50;;;8.70;91.40;;;;;;5077200;28;20188;-69
2022/12/27 14:04:06;;;;;;;0.65;0.60;;;8.60;91.00;;;;;;5077087;28;20192;-70
2022/12/27 14:06:50;;;;;;;0.30;0.30;;;8.60;91.00;;;;;;5077178;28;20580;-70
2022/12/27 14:09:28;;;;;;;0.40;0.40;;;8.70;92.30;;;;;;5076883;28;20170;-70
2022/12/27 14:11:53;;;;;;;0.40;0.40;;;8.60;91.30;;;;;;5076715;28;20260;-70
2022/12/27 14:14:20;;;;;;;0.30;0.30;;;8.50;91.30;;;;;;5076785;28;20748;-69
2022/12/27 14:17:04;;;;;;;0.30;0.30;;;8.50;91.50;;;;;;5076946;28;20280;-70
2022/12/27 14:19:52;;;;;;;0.40;0.40;;;8.40;92.10;;;;;;5076562;28;20191;-70
2022/12/27 14:22:48;;;;;;;0.30;0.30;;;8.40;91.90;;;;;;5076577;28;20244;-70
2022/12/27 14:25:38;;;;;;;0.30;0.30;;;8.40;91.90;;;;;;5076605;28;20295;-69
2022/12/27 14:28:36;;;;;;;0.40;0.40;;;8.50;92.30;;;;;;5076862;28;20211;-70
2022/12/27 14:31:40;;;;;;;0.40;0.40;;;8.40;92.50;;;;;;5076660;28;20665;-70
2022/12/27 14:34:27;;;;;;;0.30;0.30;;;8.40;92.80;;;;;;5076551;28;20226;-70
2022/12/27 14:37:29;;;;;;;0.30;0.30;;;8.20;93.10;;;;;;5076138;28;20205;-69
2022/12/27 14:40:19;;;;;;;0.95;0.95;;;8.00;93.90;;;;;;5075191;28;20193;-70
2022/12/27 14:43:03;;;;;;;0.40;0.40;;;7.90;93.60;;;;;;5075068;28;20174;-69
2022/12/27 14:46:07;;;;;;;0.30;0.30;;;7.80;93.60;;;;;;5076312;28;20169;-69
2022/12/27 14:48:51;;;;;;;0.30;0.30;;;7.80;94.10;;;;;;5076384;28;20184;-70
2022/12/27 14:51:51;;;;;;;0.40;0.40;;;7.80;93.80;;;;;;5076057;28;20246;-71
2022/12/27 14:54:35;;;;;;;0.30;0.30;;;7.60;93.80;;;;;;5075212;28;20168;-69
2022/12/27 14:57:07;;;;;;;0.50;0.50;;;7.40;94.10;;;;;;5076132;28;20180;-70
2022/12/27 14:59:56;;;;;;;0.50;0.50;;;7.40;94.40;;;;;;5076157;28;20200;-69
2022/12/27 15:02:40;;;;;;;0.35;0.35;;;7.40;94.60;;;;;;5074598;28;20188;-69
2022/12/27 15:05:19;;;;;;;0.40;0.40;;;7.30;94.80;;;;;;5074528;28;20226;-71
2022/12/27 15:08:12;;;;;;;0.40;0.40;;;7.30;94.90;;;;;;5074496;28;20184;-70
2022/12/27 15:10:53;;;;;;;0.30;0.30;;;7.30;94.70;;;;;;5075656;28;20285;-69